createdAt,value
2022-08-11T12:27:55.209Z,1.38
2022-08-11T12:32:58.106Z,1.30
2022-08-11T12:38:10.646Z,1.40
2022-08-11T12:43:24.216Z,1.45
2022-08-11T12:49:00.355Z,1.25
2022-08-11T12:54:48.580Z,1.55
2022-08-11T12:59:52.230Z,1.40
2022-08-11T13:04:54.745Z,1.55
2022-08-11T13:09:57.673Z,1.60
2022-08-11T13:15:02.239Z,1.23
2022-08-11T13:20:06.114Z,1.33
2022-08-11T13:25:09.523Z,1.30
2022-08-11T13:30:18.541Z,1.30
2022-08-11T13:35:23.168Z,1.02
2022-08-11T13:40:52.638Z,1.10
2022-08-11T13:45:49.814Z,1.20
2022-08-11T13:50:52.365Z,1.20
2022-08-11T13:55:55.394Z,1.20
2022-08-11T14:00:58.792Z,1.23
2022-08-11T14:06:03.496Z,1.15
2022-08-11T14:11:07.744Z,1.48
2022-08-11T14:16:33.334Z,1.00
2022-08-11T14:21:38.119Z,1.20
2022-08-11T14:26:41.652Z,1.20
2022-08-11T14:31:45.873Z,1.20
2022-08-11T14:36:52.043Z,1.17
2022-08-11T14:42:10.244Z,1.38
2022-08-11T14:47:23.932Z,1.30
2022-08-11T14:52:29.446Z,1.30
2022-08-11T14:57:55.152Z,1.50
2022-08-11T15:02:59.490Z,1.70
2022-08-11T15:08:02.425Z,1.30
2022-08-11T15:13:06.016Z,1.23
2022-08-11T15:18:12.511Z,1.30
2022-08-11T15:23:15.441Z,1.45
2022-08-11T15:28:20.064Z,1.30
2022-08-11T15:33:26.788Z,1.25
2022-08-11T15:38:30.458Z,1.40
2022-08-11T15:43:49.061Z,1.50
2022-08-11T15:49:21.721Z,1.35
2022-08-11T15:54:28.885Z,1.30
2022-08-11T15:59:42.799Z,1.50
2022-08-11T16:04:47.799Z,1.83
2022-08-11T16:10:00.043Z,1.50
2022-08-11T16:15:06.782Z,1.40
2022-08-11T16:20:10.267Z,1.20
2022-08-11T16:27:03.158Z,1.95
2022-08-11T16:30:41.286Z,1.40
2022-08-11T16:35:46.084Z,1.60
2022-08-11T16:40:52.150Z,1.52
2022-08-11T16:45:56.485Z,1.40
2022-08-11T16:50:59.278Z,1.50
2022-08-11T16:56:05.656Z,1.42
2022-08-11T17:01:11.599Z,1.85
2022-08-11T17:06:14.446Z,1.63
2022-08-11T17:11:19.265Z,1.92
2022-08-11T17:16:27.686Z,2.00
2022-08-11T17:21:34.027Z,1.67
2022-08-11T17:26:45.363Z,1.50
2022-08-11T17:31:49.433Z,1.93
2022-08-11T17:36:56.132Z,1.70
2022-08-11T17:42:00.562Z,1.50
2022-08-11T17:47:06.152Z,1.60
2022-08-11T17:52:10.015Z,1.50
2022-08-11T17:57:20.534Z,1.77
2022-08-11T18:02:48.217Z,1.90
2022-08-11T18:07:53.373Z,1.70
2022-08-11T18:12:57.433Z,1.75
2022-08-11T18:17:59.864Z,1.80
2022-08-11T18:23:08.296Z,1.67
2022-08-11T18:28:12.854Z,1.70
2022-08-11T18:33:44.908Z,1.85
2022-08-11T18:38:41.981Z,2.00
2022-08-11T18:43:48.232Z,2.50
2022-08-11T18:48:54.953Z,2.03
2022-08-11T18:54:08.757Z,2.10
2022-08-11T18:59:13.728Z,2.00
2022-08-11T19:04:19.300Z,2.20
2022-08-11T19:09:21.903Z,2.15
2022-08-11T19:19:29.332Z,2.37
2022-08-11T19:24:32.935Z,2.10
2022-08-11T19:30:04.883Z,2.15
2022-08-11T19:35:01.352Z,1.98
2022-08-11T19:40:09.746Z,2.30
2022-08-11T19:45:16.100Z,2.20
2022-08-11T19:50:24.199Z,2.35
2022-08-11T19:55:27.970Z,2.20
2022-08-11T20:00:31.140Z,2.60
2022-08-11T20:05:34.301Z,2.22
2022-08-11T20:10:37.552Z,2.50
2022-08-11T20:15:41.477Z,2.67
2022-08-11T20:20:47.013Z,2.75
2022-08-11T20:25:55.782Z,2.50
2022-08-11T20:31:07.999Z,2.45
2022-08-11T20:36:13.381Z,2.50
2022-08-11T20:41:17.306Z,2.28
2022-08-11T20:46:21.838Z,2.75
2022-08-11T20:51:25.190Z,2.42
2022-08-11T20:56:31.103Z,2.75
2022-08-11T21:01:38.764Z,2.78
2022-08-11T21:06:44.956Z,2.88
2022-08-11T21:11:49.442Z,2.38
2022-08-11T21:16:54.629Z,2.80
2022-08-11T21:22:00.569Z,2.80
2022-08-11T21:27:07.134Z,2.65
2022-08-11T21:32:20.573Z,2.63
2022-08-11T21:37:24.582Z,2.83
2022-08-11T21:42:28.168Z,2.65
2022-08-11T21:47:43.551Z,2.80
2022-08-11T21:52:46.832Z,3.05
2022-08-11T21:57:50.685Z,3.60
2022-08-11T22:02:53.922Z,3.30
2022-08-11T22:07:57.079Z,3.47
2022-08-11T22:12:59.512Z,3.47
2022-08-11T22:18:02.038Z,3.72
2022-08-11T22:23:05.029Z,3.97
2022-08-11T22:33:09.636Z,4.05
2022-08-11T22:38:12.969Z,3.42
2022-08-11T22:43:15.491Z,3.92
2022-08-11T22:48:20.129Z,4.05
2022-08-11T22:53:25.579Z,4.10
2022-08-11T22:58:49.311Z,3.90
2022-08-11T23:03:52.634Z,3.70
2022-08-11T23:08:56.916Z,5.00
2022-08-11T23:14:00.069Z,4.10
2022-08-11T23:19:04.319Z,4.03
2022-08-11T23:24:07.593Z,4.63
2022-08-11T23:29:11.310Z,4.97
2022-08-11T23:35:04.342Z,4.90
2022-08-11T23:40:06.579Z,4.68
2022-08-11T23:50:13.002Z,5.07
2022-08-11T23:55:21.061Z,5.00
